createdAt,value
2018-06-05T00:01:46.506Z,19.70
2018-06-05T00:04:17.092Z,19.70
2018-06-05T00:06:46.259Z,19.60
2018-06-05T00:09:16.200Z,19.50
2018-06-05T00:11:45.332Z,19.60
2018-06-05T00:14:14.498Z,19.60
2018-06-05T00:16:43.746Z,19.60
2018-06-05T00:19:12.851Z,19.60
2018-06-05T00:24:11.124Z,19.50
2018-06-05T00:26:40.530Z,19.40
2018-06-05T00:29:10.042Z,19.30
2018-06-05T00:31:41.374Z,19.20
2018-06-05T00:34:11.480Z,19.20
2018-06-05T00:36:44.266Z,19.00
2018-06-05T00:39:15.825Z,19.00
2018-06-05T00:41:46.315Z,19.00
2018-06-05T00:44:16.628Z,19.00
2018-06-05T00:46:47.299Z,19.00
2018-06-05T00:49:18.224Z,18.90
2018-06-05T00:54:25.800Z,18.80
2018-06-05T00:56:55.933Z,18.70
2018-06-05T00:59:25.111Z,18.70
2018-06-05T01:01:57.263Z,18.70
2018-06-05T01:04:29.521Z,18.60
2018-06-05T01:07:00.072Z,18.60
2018-06-05T01:09:31.917Z,18.60
2018-06-05T01:12:02.292Z,18.50
2018-06-05T01:14:32.109Z,18.40
2018-06-05T01:17:01.289Z,18.30
2018-06-05T01:19:31.154Z,18.30
2018-06-05T01:22:34.487Z,18.40
2018-06-05T01:25:15.348Z,18.40
2018-06-05T01:30:56.251Z,18.20
2018-06-05T01:33:29.234Z,18.10
2018-06-05T01:36:18.248Z,18.00
2018-06-05T01:38:53.395Z,18.00
2018-06-05T01:41:27.680Z,18.00
2018-06-05T01:43:59.442Z,17.90
2018-06-05T01:46:33.797Z,17.80
2018-06-05T01:51:47.191Z,17.80
2018-06-05T01:54:20.415Z,17.70
2018-06-05T01:56:53.137Z,17.60
2018-06-05T01:59:27.378Z,17.60
2018-06-05T02:01:58.850Z,17.50
2018-06-05T02:04:30.506Z,17.50
2018-06-05T02:07:01.352Z,17.40
2018-06-05T02:09:31.368Z,17.40
2018-06-05T02:14:40.684Z,17.30
2018-06-05T02:17:10.294Z,17.30
2018-06-05T02:19:41.732Z,17.30
2018-06-05T02:22:12.072Z,17.30
2018-06-05T02:24:42.405Z,17.30
2018-06-05T02:27:11.591Z,17.30
2018-06-05T02:29:41.014Z,17.30
2018-06-05T02:32:13.169Z,17.30
2018-06-05T02:34:44.990Z,17.20
2018-06-05T02:37:15.155Z,17.20
2018-06-05T02:39:44.250Z,17.10
2018-06-05T02:42:14.059Z,17.10
2018-06-05T02:44:43.052Z,17.10
2018-06-05T02:47:12.205Z,17.10
2018-06-05T02:49:43.606Z,17.10
2018-06-05T02:52:12.754Z,17.00
2018-06-05T02:54:42.823Z,17.10
2018-06-05T02:57:11.750Z,17.10
2018-06-05T02:59:40.835Z,17.00
2018-06-05T03:02:09.980Z,17.00
2018-06-05T03:04:39.225Z,16.90
2018-06-05T03:07:08.273Z,16.90
2018-06-05T03:09:56.300Z,16.80
2018-06-05T03:12:27.865Z,16.90
2018-06-05T03:14:57.937Z,16.80
2018-06-05T03:17:36.253Z,16.80
2018-06-05T03:20:05.430Z,16.80
2018-06-05T03:22:34.752Z,16.70
2018-06-05T03:25:04.274Z,16.70
2018-06-05T03:27:33.667Z,16.80
2018-06-05T03:30:02.886Z,16.70
2018-06-05T03:32:32.147Z,16.60
2018-06-05T03:35:04.177Z,16.60
2018-06-05T03:37:33.406Z,16.50
2018-06-05T03:40:04.805Z,16.60
2018-06-05T03:42:33.785Z,16.60
2018-06-05T03:45:02.827Z,16.60
2018-06-05T03:47:32.625Z,16.60
2018-06-05T03:50:01.553Z,16.50
2018-06-05T03:52:30.519Z,16.50
2018-06-05T03:54:59.442Z,16.60
2018-06-05T03:57:28.364Z,16.60
2018-06-05T03:59:57.293Z,16.60
2018-06-05T04:02:26.289Z,16.60
2018-06-05T04:04:55.216Z,16.60
2018-06-05T04:07:24.101Z,16.60
2018-06-05T04:09:53.018Z,16.50
2018-06-05T04:12:23.279Z,16.60
2018-06-05T04:14:52.329Z,16.50
2018-06-05T04:17:21.290Z,16.60
2018-06-05T04:19:50.228Z,16.50
2018-06-05T04:22:19.214Z,16.50
2018-06-05T04:24:48.168Z,16.60
2018-06-05T04:27:17.527Z,16.60
2018-06-05T04:29:46.455Z,16.60
2018-06-05T04:32:15.245Z,16.70
2018-06-05T04:34:44.017Z,16.70
2018-06-05T04:37:12.775Z,16.80
2018-06-05T04:39:41.568Z,16.90
2018-06-05T04:42:10.328Z,16.90
2018-06-05T04:44:39.124Z,17.00
2018-06-05T04:47:08.055Z,17.00
2018-06-05T04:49:36.954Z,17.10
2018-06-05T04:52:05.949Z,17.10
2018-06-05T04:54:34.733Z,17.20
2018-06-05T04:57:03.521Z,17.30
2018-06-05T04:59:32.311Z,17.50
2018-06-05T05:02:01.074Z,17.50
2018-06-05T05:04:29.878Z,17.50
2018-06-05T05:07:00.102Z,17.60
2018-06-05T05:09:28.907Z,17.60
2018-06-05T05:11:57.700Z,17.70
2018-06-05T05:14:26.490Z,17.70
2018-06-05T05:16:55.260Z,17.80
2018-06-05T05:19:24.034Z,18.00
2018-06-05T05:21:52.812Z,18.00
2018-06-05T05:24:21.588Z,18.10
2018-06-05T05:26:50.364Z,18.20
2018-06-05T05:29:22.578Z,18.30
2018-06-05T05:31:51.614Z,18.50
2018-06-05T05:34:20.383Z,18.50
2018-06-05T05:36:49.203Z,18.50
2018-06-05T05:39:18.092Z,18.60
2018-06-05T05:41:47.159Z,18.60
2018-06-05T05:44:16.032Z,18.60
2018-06-05T05:46:44.836Z,18.70
2018-06-05T05:49:13.599Z,18.70
2018-06-05T05:51:42.431Z,18.80
2018-06-05T05:54:13.114Z,18.90
2018-06-05T05:56:42.414Z,18.90
2018-06-05T05:59:11.930Z,19.00
2018-06-05T06:01:40.775Z,19.00
2018-06-05T06:04:09.647Z,19.00
2018-06-05T06:06:38.475Z,19.10
2018-06-05T06:09:07.956Z,19.20
2018-06-05T06:11:37.193Z,19.20
2018-06-05T06:14:06.764Z,19.30
2018-06-05T06:16:36.748Z,19.30
2018-06-05T06:19:05.612Z,19.40
2018-06-05T06:21:34.383Z,19.40
2018-06-05T06:24:03.148Z,19.40
2018-06-05T06:26:32.479Z,19.60
2018-06-05T06:29:01.400Z,19.60
2018-06-05T06:31:31.689Z,19.60
2018-06-05T06:34:00.450Z,19.60
2018-06-05T06:36:29.793Z,19.70
2018-06-05T06:38:58.568Z,19.70
2018-06-05T06:41:27.359Z,19.70
2018-06-05T06:43:56.177Z,19.70
2018-06-05T06:46:24.943Z,19.80
2018-06-05T06:48:53.793Z,19.80
2018-06-05T06:51:22.560Z,19.90
2018-06-05T06:53:51.604Z,19.90
2018-06-05T06:56:20.392Z,20.00
2018-06-05T06:58:49.150Z,20.10
2018-06-05T07:01:17.921Z,20.20
2018-06-05T07:03:46.716Z,20.20
2018-06-05T07:06:17.430Z,20.30
2018-06-05T07:08:46.223Z,20.20
2018-06-05T07:11:15.523Z,20.30
2018-06-05T07:13:44.370Z,20.30
2018-06-05T07:16:13.326Z,20.40
2018-06-05T07:18:43.184Z,20.40
2018-06-05T07:21:12.918Z,20.50
2018-06-05T07:23:43.266Z,20.70
2018-06-05T07:26:12.816Z,20.80
2018-06-05T07:28:42.199Z,20.90
2018-06-05T07:31:11.664Z,21.00
2018-06-05T07:33:40.740Z,21.00
2018-06-05T07:36:09.759Z,21.00
2018-06-05T07:38:38.801Z,21.20
2018-06-05T07:41:08.031Z,21.30
2018-06-05T07:43:37.901Z,21.50
2018-06-05T07:46:08.451Z,21.60
2018-06-05T07:48:38.037Z,21.50
2018-06-05T07:51:07.051Z,21.60
2018-06-05T07:53:36.187Z,21.70
2018-06-05T07:56:05.539Z,21.80
2018-06-05T07:58:34.691Z,21.70
2018-06-05T08:01:03.726Z,21.80
2018-06-05T08:03:32.576Z,22.00
2018-06-05T08:06:01.459Z,22.10
2018-06-05T08:08:30.332Z,22.00
2018-06-05T08:10:59.264Z,22.10
2018-06-05T08:13:28.352Z,22.10
2018-06-05T08:15:57.204Z,22.30
2018-06-05T08:18:26.149Z,22.20
2018-06-05T08:20:54.978Z,22.30
2018-06-05T08:23:23.927Z,22.30
2018-06-05T08:25:52.992Z,22.50
2018-06-05T08:28:35.489Z,22.60
2018-06-05T08:31:08.253Z,22.60
2018-06-05T08:33:38.475Z,22.90
2018-06-05T08:36:08.886Z,23.20
2018-06-05T08:38:39.872Z,23.40
2018-06-05T08:41:17.448Z,23.50
2018-06-05T08:43:46.228Z,23.60
2018-06-05T08:46:15.819Z,23.70
2018-06-05T08:48:44.608Z,23.80
2018-06-05T08:51:13.597Z,23.50
2018-06-05T08:53:42.368Z,23.60
2018-06-05T08:56:11.137Z,23.60
2018-06-05T08:58:39.903Z,23.60
2018-06-05T09:01:08.672Z,23.40
2018-06-05T09:03:37.508Z,23.50
2018-06-05T09:06:07.091Z,23.60
2018-06-05T09:08:35.904Z,23.80
2018-06-05T09:11:04.703Z,24.00
2018-06-05T09:13:33.487Z,24.40
2018-06-05T09:16:02.390Z,24.40
2018-06-05T09:18:31.204Z,24.40
2018-06-05T09:20:59.961Z,24.70
2018-06-05T09:23:28.753Z,24.70
2018-06-05T09:25:57.586Z,25.00
2018-06-05T09:28:26.403Z,25.20
2018-06-05T09:30:55.165Z,25.40
2018-06-05T09:33:24.159Z,25.40
2018-06-05T09:35:52.912Z,26.00
2018-06-05T09:38:23.208Z,26.40
2018-06-05T09:40:53.283Z,26.40
2018-06-05T09:43:22.320Z,26.20
2018-06-05T09:45:53.064Z,26.70
2018-06-05T09:48:21.852Z,27.00
2018-06-05T09:50:50.686Z,27.10
2018-06-05T09:53:19.577Z,27.10
2018-06-05T09:55:48.987Z,27.10
2018-06-05T09:58:18.097Z,27.40
2018-06-05T10:00:53.186Z,27.70
2018-06-05T10:03:22.912Z,27.90
2018-06-05T10:05:52.364Z,27.90
2018-06-05T10:08:25.533Z,28.30
2018-06-05T10:10:55.290Z,28.60
2018-06-05T10:13:25.058Z,29.00
2018-06-05T10:15:54.121Z,28.80
2018-06-05T10:18:23.843Z,28.40
2018-06-05T10:20:52.836Z,28.70
2018-06-05T10:23:23.767Z,28.50
2018-06-05T10:25:53.403Z,28.30
2018-06-05T10:28:39.905Z,28.20
2018-06-05T10:31:19.747Z,28.60
2018-06-05T10:33:49.489Z,29.10
2018-06-05T10:36:20.813Z,29.30
2018-06-05T10:38:54.062Z,29.20
2018-06-05T10:41:24.321Z,29.20
2018-06-05T10:44:36.880Z,29.50
2018-06-05T10:48:09.610Z,29.70
2018-06-05T10:50:49.933Z,30.00
2018-06-05T10:53:36.427Z,30.10
2018-06-05T10:56:44.066Z,30.00
2018-06-05T11:05:47.477Z,28.60
2018-06-05T11:08:37.417Z,29.00
2018-06-05T11:12:55.090Z,29.00
2018-06-05T11:15:31.878Z,28.90
2018-06-05T11:18:09.730Z,29.30
2018-06-05T11:20:47.277Z,29.30
2018-06-05T11:23:16.767Z,29.60
2018-06-05T11:25:55.250Z,29.70
2018-06-05T11:28:37.767Z,29.70
2018-06-05T11:31:08.234Z,30.30
2018-06-05T11:33:39.675Z,30.50
2018-06-05T11:36:12.801Z,30.90
2018-06-05T11:41:26.657Z,31.20
2018-06-05T11:43:56.201Z,31.50
2018-06-05T11:46:26.776Z,31.60
2018-06-05T11:48:59.434Z,31.70
2018-06-05T11:51:29.309Z,31.90
2018-06-05T11:54:01.953Z,32.00
2018-06-05T11:56:41.989Z,32.00
2018-06-05T11:59:13.120Z,32.20
2018-06-05T12:01:44.307Z,32.10
2018-06-05T12:04:15.096Z,32.10
2018-06-05T12:09:35.484Z,31.90
2018-06-05T12:12:25.974Z,31.50
2018-06-05T12:15:03.073Z,32.10
2018-06-05T12:17:35.509Z,32.40
2018-06-05T12:20:05.697Z,32.60
2018-06-05T12:22:43.281Z,32.80
2018-06-05T12:25:48.183Z,32.90
2018-06-05T12:28:32.901Z,33.00
2018-06-05T12:31:08.536Z,33.10
2018-06-05T12:33:48.966Z,33.10
2018-06-05T12:36:21.677Z,33.20
2018-06-05T12:39:00.166Z,33.30
2018-06-05T12:44:26.888Z,32.80
2018-06-05T12:47:14.975Z,33.10
2018-06-05T12:49:55.266Z,32.90
2018-06-05T12:52:27.452Z,33.30
2018-06-05T12:57:32.238Z,33.60
2018-06-05T13:00:06.773Z,33.70
2018-06-05T13:02:42.000Z,33.60
2018-06-05T13:05:13.079Z,33.10
2018-06-05T13:07:56.616Z,33.30
2018-06-05T13:10:29.264Z,33.50
2018-06-05T13:12:58.920Z,33.40
2018-06-05T13:15:30.372Z,33.70
2018-06-05T13:17:59.849Z,33.90
2018-06-05T13:20:30.754Z,34.00
2018-06-05T13:23:06.810Z,33.90
2018-06-05T13:25:36.888Z,33.70
2018-06-05T13:28:14.355Z,34.00
2018-06-05T13:30:47.534Z,33.90
2018-06-05T13:33:19.116Z,33.40
2018-06-05T13:35:49.497Z,33.70
2018-06-05T13:38:21.624Z,33.80
2018-06-05T13:41:03.232Z,33.50
2018-06-05T13:43:33.124Z,33.60
2018-06-05T13:46:06.321Z,33.30
2018-06-05T13:48:35.940Z,33.40
2018-06-05T13:51:06.652Z,33.80
2018-06-05T13:53:38.647Z,33.60
2018-06-05T13:56:08.070Z,33.40
2018-06-05T13:58:37.312Z,33.00
2018-06-05T14:01:08.463Z,32.90
2018-06-05T14:03:37.745Z,33.00
2018-06-05T14:06:06.733Z,33.40
2018-06-05T14:08:36.341Z,33.00
2018-06-05T14:11:06.613Z,32.70
2018-06-05T14:13:36.016Z,32.40
2018-06-05T14:16:06.235Z,32.30
2018-06-05T14:18:43.551Z,32.40
2018-06-05T14:21:19.952Z,32.70
2018-06-05T14:23:49.072Z,32.90
2018-06-05T14:26:19.315Z,33.10
2018-06-05T14:28:49.879Z,33.30
2018-06-05T14:31:24.286Z,33.40
2018-06-05T14:33:53.869Z,33.40
2018-06-05T14:36:23.453Z,33.60
2018-06-05T14:38:54.065Z,33.70
2018-06-05T14:41:24.159Z,33.50
2018-06-05T14:43:57.024Z,33.50
2018-06-05T14:46:27.389Z,33.60
2018-06-05T14:48:56.549Z,33.20
2018-06-05T14:51:30.796Z,33.10
2018-06-05T14:54:05.940Z,33.30
2018-06-05T14:56:40.737Z,33.00
2018-06-05T14:59:16.277Z,32.80
2018-06-05T15:01:47.473Z,32.80
2018-06-05T15:04:21.716Z,32.90
2018-06-05T15:06:57.844Z,32.70
2018-06-05T15:12:37.049Z,32.50
2018-06-05T15:15:12.344Z,32.90
2018-06-05T15:18:08.982Z,33.10
2018-06-05T15:20:38.362Z,32.20
2018-06-05T15:23:07.253Z,32.10
2018-06-05T15:25:36.172Z,32.30
2018-06-05T15:28:05.167Z,32.10
2018-06-05T15:30:33.992Z,32.30
2018-06-05T15:33:27.885Z,32.30
2018-06-05T15:35:57.841Z,32.30
2018-06-05T15:38:27.361Z,32.30
2018-06-05T15:40:57.050Z,32.20
2018-06-05T15:43:27.424Z,32.40
2018-06-05T15:48:54.557Z,32.30
2018-06-05T15:51:23.343Z,32.40
2018-06-05T15:53:52.152Z,32.40
2018-06-05T15:56:20.913Z,32.30
2018-06-05T15:58:49.748Z,32.10
2018-06-05T16:01:19.295Z,32.10
2018-06-05T16:03:49.749Z,32.10
2018-06-05T16:06:19.216Z,32.00
2018-06-05T16:08:48.133Z,31.90
2018-06-05T16:11:17.030Z,31.30
2018-06-05T16:13:47.855Z,31.00
2018-06-05T16:16:19.216Z,31.00
2018-06-05T16:18:49.374Z,30.60
2018-06-05T16:21:20.003Z,30.40
2018-06-05T16:23:49.998Z,30.40
2018-06-05T16:26:22.705Z,30.30
2018-06-05T16:28:55.498Z,30.10
2018-06-05T16:31:45.966Z,30.10
2018-06-05T16:34:48.319Z,29.90
2018-06-05T16:37:43.007Z,29.80
2018-06-05T16:40:21.003Z,29.80
2018-06-05T16:42:51.351Z,29.80
2018-06-05T16:45:21.241Z,29.80
2018-06-05T16:47:50.562Z,29.80
2018-06-05T16:50:22.106Z,29.90
2018-06-05T16:52:56.628Z,29.80
2018-06-05T16:55:30.914Z,29.50
2018-06-05T16:58:05.886Z,29.30
2018-06-05T17:19:55.185Z,27.90
2018-06-05T17:25:23.946Z,27.80
2018-06-05T17:33:06.200Z,27.50
2018-06-05T17:38:12.484Z,27.20
2018-06-05T17:40:45.649Z,27.20
2018-06-05T17:43:47.401Z,27.30
2018-06-05T17:46:17.562Z,27.20
2018-06-05T17:48:48.962Z,27.10
2018-06-05T17:54:10.251Z,26.70
2018-06-05T17:56:45.745Z,26.60
2018-06-05T17:59:15.440Z,26.50
2018-06-05T18:01:44.851Z,26.50
2018-06-05T18:04:16.048Z,26.40
2018-06-05T18:06:48.707Z,26.30
2018-06-05T18:09:25.236Z,26.20
2018-06-05T18:11:54.553Z,26.20
2018-06-05T18:14:24.166Z,26.20
2018-06-05T18:16:53.425Z,26.10
2018-06-05T18:19:23.255Z,26.10
2018-06-05T18:21:52.696Z,26.10
2018-06-05T18:24:22.186Z,26.10
2018-06-05T18:26:51.741Z,26.10
2018-06-05T18:29:21.235Z,26.10
2018-06-05T18:31:50.771Z,26.20
2018-06-05T18:34:20.237Z,26.20
2018-06-05T18:36:51.153Z,26.20
2018-06-05T18:39:20.910Z,26.20
2018-06-05T18:41:50.569Z,26.10
2018-06-05T18:44:19.957Z,26.00
2018-06-05T18:46:49.449Z,26.00
2018-06-05T18:49:18.988Z,25.90
2018-06-05T18:51:48.415Z,25.80
2018-06-05T18:54:18.099Z,25.70
2018-06-05T18:59:16.560Z,25.60
2018-06-05T19:01:46.120Z,25.50
2018-06-05T19:04:19.313Z,25.60
2018-06-05T19:06:48.871Z,25.50
2018-06-05T19:09:18.725Z,25.60
2018-06-05T19:14:17.317Z,25.60
2018-06-05T19:16:46.725Z,25.60
2018-06-05T19:19:16.216Z,25.50
2018-06-05T19:21:46.347Z,25.50
2018-06-05T19:24:15.961Z,25.50
2018-06-05T19:26:45.500Z,25.20
2018-06-05T19:29:14.917Z,25.20
2018-06-05T19:31:44.289Z,25.00
2018-06-05T19:34:13.837Z,24.80
2018-06-05T19:36:43.443Z,24.90
2018-06-05T19:39:12.972Z,24.70
2018-06-05T19:41:42.411Z,24.60
2018-06-05T19:46:41.532Z,24.40
2018-06-05T19:49:10.939Z,24.20
2018-06-05T19:51:40.754Z,24.00
2018-06-05T19:54:10.800Z,23.80
2018-06-05T19:56:40.729Z,23.80
2018-06-05T19:59:10.245Z,23.60
2018-06-05T20:01:40.269Z,23.40
2018-06-05T20:04:11.558Z,23.30
2018-06-05T20:06:41.215Z,23.30
2018-06-05T20:09:15.596Z,23.30
2018-06-05T20:11:47.313Z,23.30
2018-06-05T20:14:16.974Z,23.20
2018-06-05T20:16:51.390Z,23.10
2018-06-05T20:19:21.089Z,23.10
2018-06-05T20:21:50.814Z,23.10
2018-06-05T20:24:21.051Z,23.00
2018-06-05T20:26:50.751Z,22.80
2018-06-05T20:29:20.573Z,22.80
2018-06-05T20:31:50.291Z,22.70
2018-06-05T20:34:20.663Z,22.60
2018-06-05T20:36:50.346Z,22.50
2018-06-05T20:39:20.301Z,22.30
2018-06-05T20:41:50.310Z,22.20
2018-06-05T20:44:19.732Z,22.20
2018-06-05T20:46:49.363Z,22.10
2018-06-05T20:49:18.725Z,22.00
2018-06-05T20:51:48.522Z,22.00
2018-06-05T20:54:18.180Z,21.90
2018-06-05T20:56:47.664Z,21.90
2018-06-05T20:59:17.379Z,21.80
2018-06-05T21:01:47.073Z,21.60
2018-06-05T21:04:16.581Z,21.60
2018-06-05T21:06:48.756Z,21.50
2018-06-05T21:09:19.295Z,21.40
2018-06-05T21:11:52.930Z,21.30
2018-06-05T21:14:22.864Z,21.30
2018-06-05T21:16:53.676Z,21.40
2018-06-05T21:19:30.774Z,21.40
2018-06-05T21:22:04.545Z,21.30
2018-06-05T21:24:35.920Z,21.30
2018-06-05T21:27:05.394Z,21.10
2018-06-05T21:29:35.203Z,21.10
2018-06-05T21:32:04.878Z,21.00
2018-06-05T21:34:34.186Z,21.00
2018-06-05T21:37:03.594Z,21.00
2018-06-05T21:39:32.980Z,20.90
2018-06-05T21:42:02.601Z,20.90
2018-06-05T21:44:32.643Z,20.90
2018-06-05T21:47:02.908Z,20.90
2018-06-05T21:49:32.640Z,20.90
2018-06-05T21:52:02.287Z,20.90
2018-06-05T21:54:33.098Z,20.80
2018-06-05T21:57:02.484Z,20.80
2018-06-05T21:59:32.777Z,20.80
2018-06-05T22:02:02.215Z,20.80
2018-06-05T22:04:32.341Z,20.70
2018-06-05T22:07:01.770Z,20.70
2018-06-05T22:09:31.252Z,20.60
2018-06-05T22:12:00.749Z,20.70
2018-06-05T22:14:30.107Z,20.70
2018-06-05T22:19:30.442Z,20.50
2018-06-05T22:21:59.741Z,20.50
2018-06-05T22:24:29.178Z,20.50
2018-06-05T22:30:07.297Z,20.40
2018-06-05T22:32:36.671Z,20.40
2018-06-05T22:35:06.244Z,20.40
2018-06-05T22:37:35.884Z,20.30
2018-06-05T22:40:05.327Z,20.20
2018-06-05T22:42:35.454Z,20.30
2018-06-05T22:45:05.083Z,20.20
2018-06-05T22:47:34.811Z,20.00
2018-06-05T22:50:04.331Z,19.90
2018-06-05T22:52:33.829Z,19.70
2018-06-05T22:55:03.020Z,19.80
2018-06-05T22:57:32.565Z,19.80
2018-06-05T23:00:03.611Z,19.90
2018-06-05T23:02:33.214Z,19.70
2018-06-05T23:05:02.618Z,19.70
2018-06-05T23:07:32.115Z,19.60
2018-06-05T23:10:04.127Z,19.50
2018-06-05T23:12:33.687Z,19.50
2018-06-05T23:15:02.844Z,19.50
2018-06-05T23:17:32.191Z,19.50
2018-06-05T23:20:01.330Z,19.40
2018-06-05T23:22:30.590Z,19.40
2018-06-05T23:24:59.732Z,19.30
2018-06-05T23:27:28.889Z,19.20
2018-06-05T23:29:58.239Z,19.20
2018-06-05T23:32:27.411Z,19.10
2018-06-05T23:34:56.953Z,19.10
2018-06-05T23:37:26.215Z,19.00
2018-06-05T23:39:55.457Z,19.20
2018-06-05T23:42:25.302Z,19.00
2018-06-05T23:44:55.015Z,19.10
2018-06-05T23:47:24.264Z,19.30
2018-06-05T23:49:53.479Z,19.30
2018-06-05T23:52:22.698Z,19.10
2018-06-05T23:54:52.076Z,19.10
2018-06-05T23:57:21.642Z,19.10
2018-06-05T23:59:51.310Z,18.90
